Time;durP1;ratioP1;P1;durP2;ratioP2;P2;SDS_P1;SDS_P2;PMS_P1;PMS_P2;Temp;Humidity;BMP_temperature;BMP_pressure;BME280_temperature;BME280_humidity;BME280_pressure;Samples;Min_cycle;Max_cycle;Signal;HPM_P1;HPM_P2
2021/07/19 00:00:02;;;;;;;4.90;2.83;;;18.70;99.90;;;;;;1924349;74;21639;-81
2021/07/19 00:02:28;;;;;;;3.47;2.62;;;18.70;99.90;;;;;;1924007;74;21624;-81
2021/07/19 00:04:55;;;;;;;6.08;3.25;;;18.70;99.90;;;;;;1924211;74;21558;-80
2021/07/19 00:07:21;;;;;;;5.85;3.15;;;18.60;99.90;;;;;;1924064;73;21115;-80
2021/07/19 00:09:47;;;;;;;5.10;3.00;;;18.50;99.90;;;;;;1924075;74;21074;-81
2021/07/19 00:12:13;;;;;;;7.95;3.55;;;18.50;99.90;;;;;;1924003;74;21047;-80
2021/07/19 00:14:39;;;;;;;4.78;3.50;;;18.50;99.90;;;;;;1924227;74;21099;-80
2021/07/19 00:17:05;;;;;;;3.85;3.00;;;18.40;99.90;;;;;;1924079;74;21119;-80
2021/07/19 00:19:32;;;;;;;3.30;2.85;;;18.40;99.90;;;;;;1923979;74;21169;-81
2021/07/19 00:21:58;;;;;;;3.95;3.08;;;18.30;99.90;;;;;;1924226;73;21566;-81
2021/07/19 00:24:24;;;;;;;2.83;2.52;;;18.30;99.90;;;;;;1924119;74;21472;-81
2021/07/19 00:26:50;;;;;;;5.75;2.70;;;18.20;99.90;;;;;;1923718;74;21547;-80
2021/07/19 00:29:16;;;;;;;3.25;2.55;;;18.20;99.90;;;;;;1924155;74;21588;-80
2021/07/19 00:31:42;;;;;;;3.42;2.67;;;18.10;99.90;;;;;;1924135;74;21547;-80
2021/07/19 00:34:08;;;;;;;3.75;2.60;;;18.00;99.90;;;;;;1924166;74;21546;-81
2021/07/19 00:36:34;;;;;;;3.83;2.30;;;18.00;99.90;;;;;;1924045;74;21110;-79
2021/07/19 00:39:01;;;;;;;7.08;2.72;;;17.90;99.90;;;;;;1924113;74;21071;-80
2021/07/19 00:41:27;;;;;;;7.78;2.87;;;17.90;99.90;;;;;;1924168;74;21103;-80
2021/07/19 00:43:53;;;;;;;6.22;2.75;;;17.80;99.90;;;;;;1924180;74;21161;-79
2021/07/19 00:46:19;;;;;;;2.90;2.47;;;17.80;99.90;;;;;;1924240;74;21170;-80
2021/07/19 00:48:45;;;;;;;4.45;2.77;;;17.80;99.90;;;;;;1924296;74;21154;-80
2021/07/19 00:51:11;;;;;;;5.05;2.52;;;17.80;99.90;;;;;;1924394;73;21592;-80
2021/07/19 00:53:37;;;;;;;5.62;2.62;;;17.80;99.90;;;;;;1924219;74;21620;-81
2021/07/19 00:56:05;;;;;;;8.03;2.45;;;17.80;99.90;;;;;;1924024;74;21465;-81
2021/07/19 00:58:31;;;;;;;3.15;1.95;;;17.70;99.90;;;;;;1927346;73;21085;-81
2021/07/19 01:00:58;;;;;;;9.43;2.67;;;17.70;99.90;;;;;;1927033;74;21187;-80
2021/07/19 01:03:24;;;;;;;6.67;2.45;;;17.70;99.90;;;;;;1924920;73;21108;-80
2021/07/19 01:05:50;;;;;;;2.17;1.98;;;17.70;99.90;;;;;;1924200;74;21100;-81
2021/07/19 01:08:16;;;;;;;2.87;2.22;;;17.60;99.90;;;;;;1924157;74;21189;-80
2021/07/19 01:10:42;;;;;;;6.97;2.25;;;17.60;99.90;;;;;;1924160;74;21193;-81
2021/07/19 01:13:08;;;;;;;5.53;1.82;;;17.60;99.90;;;;;;1924201;73;21099;-80
2021/07/19 01:15:34;;;;;;;7.03;1.87;;;17.60;99.90;;;;;;1924192;74;21142;-80
2021/07/19 01:18:00;;;;;;;2.12;1.85;;;17.60;99.90;;;;;;1924185;74;21189;-80
2021/07/19 01:20:27;;;;;;;3.67;2.37;;;17.60;99.90;;;;;;1924124;74;21082;-80
2021/07/19 01:22:53;;;;;;;2.17;1.90;;;17.50;99.90;;;;;;1924178;74;21103;-80
2021/07/19 01:25:19;;;;;;;9.03;2.22;;;17.50;99.90;;;;;;1924150;74;21094;-79
2021/07/19 01:27:45;;;;;;;3.52;2.05;;;17.40;99.90;;;;;;1924248;74;21114;-80
2021/07/19 01:30:11;;;;;;;7.28;2.08;;;17.40;99.90;;;;;;1924165;73;21188;-79
2021/07/19 01:32:37;;;;;;;3.20;2.10;;;17.40;99.90;;;;;;1924167;74;21075;-79
2021/07/19 01:35:03;;;;;;;2.47;2.05;;;17.30;99.90;;;;;;1924136;74;21177;-80
2021/07/19 01:37:31;;;;;;;2.70;2.05;;;17.20;99.90;;;;;;1923913;74;21103;-79
2021/07/19 01:39:57;;;;;;;6.47;1.77;;;17.20;99.90;;;;;;1923790;74;21152;-80
2021/07/19 01:42:23;;;;;;;3.22;1.75;;;17.10;99.90;;;;;;1923752;74;21074;-79
2021/07/19 01:44:49;;;;;;;3.72;2.20;;;17.10;99.90;;;;;;1923754;74;21074;-79
2021/07/19 01:47:15;;;;;;;5.15;2.37;;;17.00;99.90;;;;;;1923603;74;21227;-79
2021/07/19 01:49:41;;;;;;;3.62;2.22;;;17.00;99.90;;;;;;1923540;73;21149;-78
2021/07/19 01:52:07;;;;;;;7.80;2.58;;;17.00;99.90;;;;;;1923595;74;21074;-79
2021/07/19 01:54:33;;;;;;;3.15;2.30;;;17.00;99.90;;;;;;1923562;74;21091;-79
2021/07/19 01:57:00;;;;;;;5.40;2.80;;;16.90;99.90;;;;;;1923630;74;21051;-78
2021/07/19 01:59:26;;;;;;;8.13;2.85;;;16.80;99.90;;;;;;1923668;74;21051;-79
2021/07/19 02:01:52;;;;;;;2.40;1.92;;;16.80;99.90;;;;;;1923684;73;21078;-78
2021/07/19 02:04:18;;;;;;;3.72;2.25;;;16.80;99.90;;;;;;1923714;74;21184;-79
2021/07/19 02:06:44;;;;;;;5.25;2.25;;;16.80;99.90;;;;;;1923841;74;21078;-79
2021/07/19 02:09:10;;;;;;;8.00;1.92;;;16.80;99.90;;;;;;1923845;74;21115;-80
2021/07/19 02:11:36;;;;;;;3.60;2.42;;;16.80;99.90;;;;;;1923971;74;21497;-82
2021/07/19 02:14:04;;;;;;;4.75;2.30;;;16.80;99.90;;;;;;1924218;74;21516;-81
2021/07/19 02:16:31;;;;;;;6.42;2.00;;;16.70;99.90;;;;;;1923797;74;21160;-79
2021/07/19 02:18:57;;;;;;;2.33;2.12;;;16.70;99.90;;;;;;1923660;74;21090;-79
2021/07/19 02:21:23;;;;;;;4.28;2.20;;;16.70;99.90;;;;;;1923550;74;21094;-78
2021/07/19 02:23:52;;;;;;;5.05;2.52;;;16.70;99.90;;;;;;1923594;74;21149;-79
2021/07/19 02:26:18;;;;;;;3.72;2.47;;;16.70;99.90;;;;;;1923226;74;21048;-80
2021/07/19 02:28:44;;;;;;;3.00;2.33;;;16.60;99.90;;;;;;1923670;74;21124;-78
2021/07/19 02:31:10;;;;;;;4.97;2.35;;;16.70;99.90;;;;;;1923630;73;21129;-79
2021/07/19 02:33:36;;;;;;;2.60;2.40;;;16.70;99.90;;;;;;1923889;74;21497;-79
2021/07/19 02:36:02;;;;;;;4.83;2.55;;;16.70;99.90;;;;;;1923917;74;21408;-79
2021/07/19 02:38:28;;;;;;;3.67;2.25;;;16.70;99.90;;;;;;1923695;74;21474;-79
2021/07/19 02:40:55;;;;;;;4.15;2.27;;;16.70;99.90;;;;;;1923706;74;21482;-79
2021/07/19 02:43:21;;;;;;;3.25;2.45;;;16.60;99.90;;;;;;1923612;74;21596;-79
2021/07/19 02:45:47;;;;;;;4.40;2.30;;;16.60;99.90;;;;;;1923701;74;21040;-79
2021/07/19 02:48:13;;;;;;;8.68;2.30;;;16.60;99.90;;;;;;1923665;74;21063;-78
2021/07/19 02:50:39;;;;;;;2.92;2.05;;;16.60;99.90;;;;;;1923884;74;21172;-79
2021/07/19 02:53:05;;;;;;;2.45;2.17;;;16.50;99.90;;;;;;1923610;74;21117;-79
2021/07/19 02:55:31;;;;;;;2.55;2.35;;;16.50;99.90;;;;;;1923728;74;21070;-79
2021/07/19 02:57:57;;;;;;;4.50;2.00;;;16.50;99.90;;;;;;1923746;74;21140;-79
2021/07/19 03:00:24;;;;;;;2.77;2.00;;;16.50;99.90;;;;;;1923740;74;21075;-78
2021/07/19 03:02:50;;;;;;;2.83;2.30;;;16.40;99.90;;;;;;1923631;74;21140;-79
2021/07/19 03:05:16;;;;;;;2.65;2.22;;;16.40;99.90;;;;;;1923752;74;21160;-79
2021/07/19 03:07:43;;;;;;;4.78;2.35;;;16.50;99.90;;;;;;1923696;74;21075;-79
2021/07/19 03:10:09;;;;;;;4.85;2.30;;;16.50;99.90;;;;;;1923608;74;21078;-79
2021/07/19 03:12:35;;;;;;;3.30;2.30;;;16.40;99.90;;;;;;1923758;74;21132;-79
2021/07/19 03:15:01;;;;;;;6.35;2.30;;;16.40;99.90;;;;;;1923741;74;21446;-79
2021/07/19 03:17:27;;;;;;;2.92;2.10;;;16.30;99.90;;;;;;1923685;74;21430;-79
2021/07/19 03:19:54;;;;;;;3.92;2.47;;;16.30;99.90;;;;;;1923742;74;21467;-78
2021/07/19 03:22:20;;;;;;;3.77;2.22;;;16.30;99.90;;;;;;1923743;74;21082;-78
2021/07/19 03:24:46;;;;;;;4.05;2.58;;;16.20;99.90;;;;;;1923795;74;21234;-78
2021/07/19 03:27:13;;;;;;;3.60;2.10;;;16.20;99.90;;;;;;1923789;74;21039;-79
2021/07/19 03:29:39;;;;;;;3.25;2.10;;;16.20;99.90;;;;;;1923717;74;21478;-79
2021/07/19 03:32:05;;;;;;;2.42;2.22;;;16.20;99.90;;;;;;1924111;74;21176;-78
2021/07/19 03:34:31;;;;;;;2.47;2.05;;;16.20;99.90;;;;;;1924783;74;21527;-79
2021/07/19 03:36:57;;;;;;;4.28;2.62;;;16.20;99.90;;;;;;1923826;74;21489;-78
2021/07/19 03:39:23;;;;;;;4.83;2.17;;;16.10;99.90;;;;;;1923703;74;21552;-79
2021/07/19 03:41:49;;;;;;;4.95;2.02;;;16.10;99.90;;;;;;1923714;74;21074;-78
2021/07/19 03:44:15;;;;;;;3.50;2.25;;;16.00;99.90;;;;;;1923790;74;21153;-78
2021/07/19 03:46:42;;;;;;;2.52;2.30;;;16.10;99.90;;;;;;1923798;74;21071;-77
2021/07/19 03:49:08;;;;;;;7.35;2.50;;;16.10;99.90;;;;;;1923704;74;21078;-79
2021/07/19 03:51:34;;;;;;;2.27;1.98;;;16.00;99.90;;;;;;1923669;74;21124;-79
2021/07/19 03:54:00;;;;;;;3.45;2.50;;;16.00;99.90;;;;;;1923609;74;21290;-78
2021/07/19 03:56:26;;;;;;;4.15;2.65;;;16.00;99.90;;;;;;1923791;74;21079;-79
2021/07/19 03:58:52;;;;;;;2.42;2.00;;;16.00;99.90;;;;;;1923698;73;21066;-78
2021/07/19 04:01:18;;;;;;;3.20;2.10;;;16.10;99.90;;;;;;1923605;74;21152;-78
2021/07/19 04:03:48;;;;;;;3.77;2.20;;;16.10;99.90;;;;;;1923623;74;21111;-78
2021/07/19 04:06:12;;;;;;;2.77;2.15;;;16.10;99.90;;;;;;1923556;74;21475;-78
2021/07/19 04:08:40;;;;;;;3.33;2.20;;;16.10;99.90;;;;;;1924115;74;21074;-79
2021/07/19 04:11:06;;;;;;;5.08;2.40;;;16.10;99.90;;;;;;1923731;74;21150;-78
2021/07/19 04:13:32;;;;;;;8.80;2.52;;;16.10;99.90;;;;;;1923831;74;21184;-78
2021/07/19 04:15:59;;;;;;;3.58;2.30;;;16.10;99.90;;;;;;1923789;74;21082;-79
2021/07/19 04:18:25;;;;;;;6.53;2.58;;;16.10;99.90;;;;;;1923666;73;21144;-79
2021/07/19 04:20:51;;;;;;;2.75;2.17;;;16.10;99.90;;;;;;1923706;73;21046;-79
2021/07/19 04:23:17;;;;;;;4.00;1.98;;;16.20;99.90;;;;;;1923478;73;21148;-78
2021/07/19 04:25:43;;;;;;;2.72;2.37;;;16.20;99.90;;;;;;1923816;74;21070;-78
2021/07/19 04:28:09;;;;;;;6.72;2.15;;;16.20;99.90;;;;;;1923769;74;21088;-78
2021/07/19 04:30:37;;;;;;;3.25;1.82;;;16.20;99.90;;;;;;1924501;74;21074;-77
2021/07/19 04:33:03;;;;;;;3.12;1.87;;;16.20;99.90;;;;;;1925160;73;21099;-78
2021/07/19 04:35:29;;;;;;;3.47;1.87;;;16.30;99.90;;;;;;1926637;74;21048;-78
2021/07/19 04:37:55;;;;;;;3.92;2.35;;;16.30;99.90;;;;;;1926219;74;21156;-78
2021/07/19 04:40:21;;;;;;;2.25;2.05;;;16.30;99.90;;;;;;1923922;74;21497;-78
2021/07/19 04:42:47;;;;;;;5.00;1.72;;;16.30;99.90;;;;;;1923910;73;21544;-77
2021/07/19 04:45:13;;;;;;;6.80;2.35;;;16.40;99.90;;;;;;1923649;73;21158;-77
2021/07/19 04:47:40;;;;;;;4.90;2.00;;;16.40;99.90;;;;;;1923741;74;21049;-76
2021/07/19 04:50:06;;;;;;;3.45;2.42;;;16.50;99.90;;;;;;1923623;74;21117;-78
2021/07/19 04:52:32;;;;;;;3.60;2.52;;;16.50;99.90;;;;;;1923644;74;21103;-77
2021/07/19 04:54:58;;;;;;;6.12;2.25;;;16.60;99.90;;;;;;1923879;74;21237;-78
2021/07/19 04:57:24;;;;;;;9.20;2.22;;;16.60;99.90;;;;;;1923719;73;21074;-78
2021/07/19 04:59:50;;;;;;;5.25;2.30;;;16.70;99.90;;;;;;1923798;73;21152;-79
2021/07/19 05:02:16;;;;;;;2.92;2.40;;;16.70;99.90;;;;;;1922559;74;21199;-79
2021/07/19 05:04:42;;;;;;;5.03;3.17;;;16.80;99.90;;;;;;1923454;74;21156;-79
2021/07/19 05:07:09;;;;;;;5.05;3.15;;;16.70;99.90;;;;;;1923878;74;21103;-80
2021/07/19 05:09:35;;;;;;;3.80;3.05;;;16.80;99.90;;;;;;1923534;73;21226;-78
2021/07/19 05:12:01;;;;;;;5.20;3.27;;;16.80;99.90;;;;;;1923884;74;21133;-81
2021/07/19 05:14:27;;;;;;;7.03;3.40;;;17.00;99.90;;;;;;1922628;74;21086;-79
2021/07/19 05:16:53;;;;;;;21.52;3.67;;;17.10;99.90;;;;;;1921812;74;21153;-79
2021/07/19 05:19:21;;;;;;;4.60;3.70;;;17.20;99.90;;;;;;1923579;74;21163;-78
2021/07/19 05:21:47;;;;;;;8.53;4.00;;;17.30;99.90;;;;;;1923726;74;21155;-79
2021/07/19 05:24:13;;;;;;;9.55;4.97;;;17.30;99.90;;;;;;1923747;74;21054;-80
2021/07/19 05:26:39;;;;;;;13.03;5.12;;;17.50;99.90;;;;;;1923831;74;21533;-79
2021/07/19 05:29:05;;;;;;;9.20;4.03;;;17.60;99.90;;;;;;1923958;74;21144;-78
2021/07/19 05:31:32;;;;;;;5.85;4.25;;;17.70;99.90;;;;;;1927276;73;21036;-78
2021/07/19 05:33:58;;;;;;;4.42;3.47;;;17.90;99.90;;;;;;1927305;73;21121;-79
2021/07/19 05:36:24;;;;;;;5.37;3.47;;;18.10;99.90;;;;;;1923857;73;21145;-78
2021/07/19 05:38:50;;;;;;;4.60;3.70;;;18.30;99.90;;;;;;1923809;74;21189;-79
2021/07/19 05:41:16;;;;;;;4.30;3.37;;;18.50;99.90;;;;;;1923754;74;21189;-77
2021/07/19 05:43:42;;;;;;;4.40;3.27;;;18.60;99.90;;;;;;1923698;74;21107;-77
2021/07/19 05:46:08;;;;;;;5.17;3.42;;;18.80;99.90;;;;;;1923114;74;21075;-78
2021/07/19 05:48:34;;;;;;;5.47;3.37;;;19.00;99.90;;;;;;1923868;74;21172;-77
2021/07/19 05:51:02;;;;;;;4.87;3.37;;;19.10;99.90;;;;;;1923570;74;21104;-77
2021/07/19 05:53:28;;;;;;;7.12;3.98;;;19.20;99.90;;;;;;1923640;74;21196;-76
2021/07/19 05:55:54;;;;;;;7.03;3.75;;;19.20;99.90;;;;;;1923766;74;21074;-77
2021/07/19 05:58:20;;;;;;;5.03;3.45;;;19.30;99.90;;;;;;1923790;74;21070;-79
2021/07/19 06:00:46;;;;;;;11.28;3.80;;;19.90;99.90;;;;;;1923779;74;21191;-79
2021/07/19 06:03:12;;;;;;;5.53;3.60;;;20.60;99.90;;;;;;1923883;74;21047;-80
2021/07/19 06:05:38;;;;;;;10.55;3.87;;;20.90;99.90;;;;;;1923723;74;21116;-80
2021/07/19 06:08:04;;;;;;;6.75;3.62;;;20.60;99.90;;;;;;1923707;74;21070;-80
2021/07/19 06:10:31;;;;;;;4.95;3.12;;;20.40;99.90;;;;;;1923512;74;21491;-80
2021/07/19 06:12:57;;;;;;;6.83;3.02;;;20.80;99.90;;;;;;1923798;74;21541;-82
2021/07/19 06:15:23;;;;;;;5.42;3.10;;;21.90;99.90;;;;;;1923756;74;21555;-76
2021/07/19 06:17:50;;;;;;;4.65;3.12;;;23.10;99.90;;;;;;1923671;74;21521;-78
2021/07/19 06:20:16;;;;;;;5.05;2.98;;;23.80;99.90;;;;;;1923723;74;21147;-76
2021/07/19 06:22:42;;;;;;;6.45;3.00;;;24.30;99.90;;;;;;1923685;74;21167;-77
2021/07/19 06:25:08;;;;;;;6.53;2.62;;;25.20;99.90;;;;;;1923761;74;21074;-76
2021/07/19 06:27:34;;;;;;;6.67;2.62;;;25.50;99.90;;;;;;1923898;74;21071;-76
2021/07/19 06:30:00;;;;;;;4.85;2.70;;;25.70;99.90;;;;;;1923889;74;21042;-76
2021/07/19 06:32:27;;;;;;;3.47;3.05;;;26.00;99.90;;;;;;1924378;74;21228;-75
2021/07/19 06:34:53;;;;;;;6.83;2.52;;;26.60;99.90;;;;;;1925137;74;21059;-74
2021/07/19 06:37:19;;;;;;;3.98;2.50;;;26.80;99.90;;;;;;1924257;74;21148;-74
2021/07/19 06:39:45;;;;;;;5.33;3.08;;;26.80;99.90;;;;;;1923599;74;21070;-74
2021/07/19 06:42:11;;;;;;;3.22;2.35;;;27.00;99.90;;;;;;1923697;74;21082;-74
2021/07/19 06:44:37;;;;;;;11.73;2.75;;;27.50;99.90;;;;;;1923611;74;21197;-75
2021/07/19 06:47:03;;;;;;;6.90;2.25;;;27.70;99.90;;;;;;1923690;73;21087;-75
2021/07/19 06:49:29;;;;;;;8.08;2.27;;;27.60;99.90;;;;;;1923508;74;21084;-75
2021/07/19 06:51:56;;;;;;;2.67;2.17;;;27.60;99.90;;;;;;1923669;74;21245;-75
2021/07/19 06:54:22;;;;;;;3.83;2.15;;;27.30;99.90;;;;;;1923677;74;21418;-74
2021/07/19 06:56:48;;;;;;;2.58;2.08;;;27.50;99.90;;;;;;1923616;74;21506;-75
2021/07/19 06:59:14;;;;;;;2.80;2.25;;;27.50;99.90;;;;;;1923668;74;21139;-75
2021/07/19 07:01:41;;;;;;;4.17;2.00;;;27.50;99.90;;;;;;1923627;74;21078;-76
2021/07/19 07:04:09;;;;;;;3.67;2.15;;;27.90;99.90;;;;;;1923668;74;21518;-75
2021/07/19 07:06:35;;;;;;;10.15;2.50;;;28.50;99.90;;;;;;1923391;74;21223;-76
2021/07/19 07:09:01;;;;;;;3.75;2.15;;;27.00;99.90;;;;;;1923571;74;21091;-75
2021/07/19 07:11:27;;;;;;;2.92;2.20;;;26.60;99.90;;;;;;1923642;74;21113;-75
2021/07/19 07:13:54;;;;;;;6.85;2.33;;;27.40;99.90;;;;;;1923632;74;21160;-76
2021/07/19 07:16:20;;;;;;;5.03;2.47;;;27.80;99.90;;;;;;1923561;74;21144;-76
2021/07/19 07:18:46;;;;;;;4.53;2.30;;;27.00;99.90;;;;;;1921469;74;21107;-75
2021/07/19 07:21:12;;;;;;;5.95;2.33;;;27.50;99.90;;;;;;1923497;74;21074;-75
2021/07/19 07:23:38;;;;;;;5.03;2.33;;;27.90;99.90;;;;;;1923765;74;21075;-75
2021/07/19 07:26:04;;;;;;;3.45;2.40;;;26.60;99.90;;;;;;1923595;74;21261;-74
2021/07/19 07:28:30;;;;;;;3.65;2.15;;;25.90;99.90;;;;;;1923601;74;21043;-75
2021/07/19 07:30:56;;;;;;;5.60;2.05;;;25.80;99.90;;;;;;1923617;74;21195;-75
2021/07/19 07:33:23;;;;;;;5.72;2.22;;;26.00;99.90;;;;;;1920210;74;21078;-75
2021/07/19 07:35:50;;;;;;;2.87;1.90;;;25.90;99.90;;;;;;1923887;74;21074;-76
2021/07/19 07:38:16;;;;;;;7.28;2.60;;;26.20;99.90;;;;;;1923800;74;21622;-76
2021/07/19 07:40:42;;;;;;;3.58;2.50;;;25.80;99.90;;;;;;1923980;74;21482;-75
2021/07/19 07:43:08;;;;;;;3.10;2.00;;;25.50;99.90;;;;;;1924072;74;21202;-75
2021/07/19 07:45:34;;;;;;;5.47;2.45;;;25.60;99.90;;;;;;1920848;74;21079;-76
2021/07/19 07:48:01;;;;;;;5.70;1.80;;;26.10;99.90;;;;;;1922109;74;21043;-76
2021/07/19 07:50:27;;;;;;;3.37;1.98;;;26.50;99.90;;;;;;1924009;74;21110;-73
2021/07/19 07:52:53;;;;;;;3.10;1.70;;;27.60;99.90;;;;;;1924036;73;21079;-75
2021/07/19 07:55:19;;;;;;;4.22;2.45;;;28.30;99.90;;;;;;1924137;74;21174;-75
2021/07/19 07:57:45;;;;;;;5.92;2.10;;;28.60;99.90;;;;;;1924196;73;21067;-75
2021/07/19 08:00:11;;;;;;;4.03;1.80;;;28.70;99.90;;;;;;1924075;74;21083;-75
2021/07/19 08:02:37;;;;;;;4.67;2.12;;;28.10;99.90;;;;;;1924108;74;21549;-75
2021/07/19 08:05:04;;;;;;;6.03;2.00;;;27.80;99.90;;;;;;1924121;74;21624;-76
2021/07/19 08:07:30;;;;;;;10.28;2.27;;;27.70;99.90;;;;;;1924128;74;21547;-76
2021/07/19 08:09:56;;;;;;;5.53;2.10;;;26.70;99.90;;;;;;1923769;74;21586;-75
2021/07/19 08:12:23;;;;;;;3.58;2.15;;;26.40;99.90;;;;;;1924101;74;21107;-74
2021/07/19 08:14:49;;;;;;;3.05;1.90;;;26.70;99.90;;;;;;1924114;74;21514;-75
2021/07/19 08:17:16;;;;;;;4.75;2.25;;;27.20;99.90;;;;;;1924062;74;21539;-74
2021/07/19 08:19:42;;;;;;;5.08;2.05;;;27.40;99.90;;;;;;1924101;74;21157;-75
2021/07/19 08:22:13;;;;;;;4.45;2.37;;;27.20;99.90;;;;;;1924024;74;21159;-75
2021/07/19 08:24:36;;;;;;;2.45;1.90;;;27.00;99.90;;;;;;1924075;74;21088;-74
2021/07/19 08:27:03;;;;;;;2.72;2.12;;;27.20;99.90;;;;;;1924160;74;21095;-76
2021/07/19 08:29:29;;;;;;;6.47;2.70;;;26.80;99.90;;;;;;1924175;74;21078;-74
2021/07/19 08:31:55;;;;;;;9.83;2.87;;;26.20;99.90;;;;;;1923989;74;21103;-75
2021/07/19 08:34:21;;;;;;;4.28;2.25;;;26.60;99.90;;;;;;1924252;73;21624;-75
2021/07/19 08:36:49;;;;;;;6.33;2.67;;;26.20;99.90;;;;;;1923993;74;21567;-75
2021/07/19 08:39:15;;;;;;;9.70;2.20;;;26.50;99.90;;;;;;1924161;74;21099;-74
2021/07/19 08:41:41;;;;;;;4.60;1.90;;;26.50;99.90;;;;;;1924090;74;21074;-74
2021/07/19 08:44:10;;;;;;;4.90;2.33;;;26.60;99.90;;;;;;1924029;74;21138;-75
2021/07/19 08:46:35;;;;;;;3.65;2.10;;;26.70;99.90;;;;;;1924002;74;21099;-74
2021/07/19 08:49:01;;;;;;;11.05;2.20;;;26.30;99.90;;;;;;1924220;74;21122;-75
2021/07/19 08:51:28;;;;;;;6.85;2.35;;;26.70;99.90;;;;;;1924210;74;21078;-74
2021/07/19 08:53:54;;;;;;;6.72;2.52;;;27.10;99.90;;;;;;1923989;74;21486;-75
2021/07/19 08:56:20;;;;;;;2.60;2.02;;;27.00;99.90;;;;;;1924189;74;21530;-74
2021/07/19 08:58:46;;;;;;;4.15;2.27;;;26.40;99.90;;;;;;1924242;73;21531;-73
2021/07/19 09:01:12;;;;;;;5.03;2.50;;;26.60;99.90;;;;;;1923947;74;21554;-75
2021/07/19 09:03:38;;;;;;;2.70;2.02;;;26.50;99.90;;;;;;1924160;74;21531;-76
2021/07/19 09:06:04;;;;;;;2.83;1.90;;;26.30;99.90;;;;;;1923946;74;21570;-77
2021/07/19 09:08:30;;;;;;;7.33;2.10;;;26.40;99.90;;;;;;1924142;74;21637;-76
2021/07/19 09:10:57;;;;;;;1.90;1.70;;;26.40;99.90;;;;;;1923990;74;21183;-77
2021/07/19 09:13:23;;;;;;;2.20;1.95;;;26.50;99.90;;;;;;1924068;74;21176;-77
2021/07/19 09:15:49;;;;;;;7.65;2.10;;;26.20;99.90;;;;;;1923935;74;21070;-77
2021/07/19 09:18:15;;;;;;;3.25;1.95;;;26.30;99.90;;;;;;1924133;74;21095;-77
2021/07/19 09:20:43;;;;;;;7.53;2.10;;;27.00;99.90;;;;;;1923908;74;21074;-77
2021/07/19 09:23:09;;;;;;;5.85;1.87;;;27.00;99.90;;;;;;1924125;74;21107;-77
2021/07/19 09:25:36;;;;;;;4.35;1.85;;;27.40;99.90;;;;;;1923952;74;21082;-78
2021/07/19 09:28:05;;;;;;;2.75;2.15;;;27.60;99.90;;;;;;1924077;74;21180;-77
2021/07/19 09:30:31;;;;;;;4.72;2.27;;;27.60;99.90;;;;;;1924146;74;21095;-78
2021/07/19 09:32:57;;;;;;;3.47;2.10;;;27.30;99.90;;;;;;1924030;74;21117;-78
2021/07/19 09:35:23;;;;;;;5.03;2.17;;;27.40;99.90;;;;;;1924185;74;21165;-79
2021/07/19 09:37:49;;;;;;;13.75;2.37;;;26.80;99.90;;;;;;1923996;73;21107;-78
2021/07/19 09:40:15;;;;;;;4.17;2.35;;;26.60;99.90;;;;;;1924165;74;21091;-76
2021/07/19 09:42:42;;;;;;;7.92;2.10;;;26.30;99.90;;;;;;1923959;74;21075;-78
2021/07/19 09:47:45;;;;;;;3.98;2.22;;;26.20;99.90;;;;;;1939491;72;21324;-79
2021/07/19 09:50:11;;;;;;;3.37;2.00;;;26.90;99.90;;;;;;2052095;69;21060;-78
2021/07/19 09:52:37;;;;;;;3.67;2.17;;;27.50;99.90;;;;;;2050487;70;21484;-78
2021/07/19 09:55:03;;;;;;;5.10;2.37;;;27.90;99.90;;;;;;2048029;70;21040;-82
2021/07/19 09:57:31;;;;;;;2.72;2.17;;;28.20;99.90;;;;;;2048338;69;21043;-81
2021/07/19 09:59:59;;;;;;;5.90;2.20;;;28.00;99.90;;;;;;2047906;70;21559;-81
2021/07/19 10:02:25;;;;;;;5.80;2.40;;;28.20;99.90;;;;;;2048049;70;21085;-80
2021/07/19 10:04:51;;;;;;;2.58;2.37;;;28.30;99.90;;;;;;2047918;70;21015;-80
2021/07/19 10:07:17;;;;;;;5.00;2.10;;;28.20;99.90;;;;;;2048105;70;21119;-79
2021/07/19 10:09:43;;;;;;;2.15;1.60;;;28.20;99.90;;;;;;2048017;70;21103;-80
2021/07/19 10:12:09;;;;;;;2.92;2.20;;;28.00;99.90;;;;;;2048174;70;21015;-78
2021/07/19 10:14:35;;;;;;;3.08;1.70;;;28.20;99.90;;;;;;2048197;69;21038;-78
2021/07/19 10:17:06;;;;;;;9.13;2.10;;;28.10;99.90;;;;;;2048234;70;21049;-77
2021/07/19 10:19:30;;;;;;;4.25;1.95;;;27.60;99.90;;;;;;2046773;70;21055;-77
2021/07/19 10:21:56;;;;;;;3.15;2.00;;;27.30;99.90;;;;;;2048083;70;21485;-79
2021/07/19 10:24:22;;;;;;;3.33;2.40;;;27.40;99.90;;;;;;2048113;70;21486;-79
2021/07/19 10:26:49;;;;;;;7.85;2.08;;;27.70;99.90;;;;;;2048114;70;21054;-79
2021/07/19 10:29:15;;;;;;;2.00;1.90;;;27.60;99.90;;;;;;2048268;70;21142;-79
2021/07/19 10:31:41;;;;;;;2.12;1.87;;;28.20;99.90;;;;;;2048062;70;21015;-78
2021/07/19 10:34:07;;;;;;;5.97;2.05;;;28.30;99.90;;;;;;2048013;70;21019;-78
2021/07/19 10:36:33;;;;;;;4.65;1.92;;;28.50;99.90;;;;;;2048074;70;21038;-79
2021/07/19 10:38:59;;;;;;;8.15;2.05;;;27.90;99.90;;;;;;2048212;70;21046;-78
2021/07/19 10:41:25;;;;;;;3.40;1.90;;;27.80;99.90;;;;;;2037221;70;21057;-78
2021/07/19 10:43:52;;;;;;;1.82;1.72;;;28.40;99.90;;;;;;2048072;70;21022;-78
2021/07/19 10:46:18;;;;;;;7.33;2.20;;;28.60;99.90;;;;;;2044169;70;21038;-78
2021/07/19 10:48:44;;;;;;;5.08;1.92;;;28.50;99.90;;;;;;2033920;70;21075;-79
2021/07/19 10:51:10;;;;;;;2.17;1.98;;;28.40;99.90;;;;;;2033961;70;21133;-79
2021/07/19 10:53:37;;;;;;;2.90;1.65;;;28.90;99.90;;;;;;2031846;70;21107;-79
2021/07/19 10:56:03;;;;;;;5.00;2.08;;;29.20;99.90;;;;;;2032016;70;21054;-79
2021/07/19 10:58:29;;;;;;;4.15;2.00;;;29.00;99.90;;;;;;2033930;70;21047;-78
2021/07/19 11:00:56;;;;;;;5.78;2.02;;;28.90;99.90;;;;;;2033915;70;21047;-78
2021/07/19 11:03:23;;;;;;;3.08;1.90;;;29.10;99.90;;;;;;2033872;70;21170;-79
2021/07/19 11:05:49;;;;;;;7.12;1.98;;;29.00;99.90;;;;;;2033959;70;21079;-78
2021/07/19 11:08:15;;;;;;;2.67;1.60;;;28.60;99.90;;;;;;2033816;70;21050;-80
2021/07/19 11:10:41;;;;;;;3.98;1.62;;;28.30;99.90;;;;;;2034010;70;21087;-78
2021/07/19 11:13:07;;;;;;;1.67;1.57;;;28.90;99.90;;;;;;2033811;70;21046;-81
2021/07/19 11:15:33;;;;;;;2.80;1.47;;;29.00;99.90;;;;;;2034009;70;21079;-80
2021/07/19 11:18:00;;;;;;;7.40;1.72;;;28.90;99.90;;;;;;2033924;70;21064;-79
2021/07/19 11:20:26;;;;;;;2.67;1.50;;;28.70;99.90;;;;;;2035607;70;21060;-79
2021/07/19 11:22:52;;;;;;;3.77;1.77;;;28.90;99.90;;;;;;2034092;70;21139;-79
2021/07/19 11:25:18;;;;;;;4.37;1.52;;;29.30;99.90;;;;;;2034101;70;21076;-79
2021/07/19 11:27:44;;;;;;;9.03;1.62;;;29.50;99.90;;;;;;2034051;69;21187;-79
2021/07/19 11:30:10;;;;;;;3.58;1.60;;;29.30;99.90;;;;;;2034060;70;21051;-80
2021/07/19 11:32:37;;;;;;;3.80;1.50;;;29.60;99.90;;;;;;2034066;70;21210;-80
2021/07/19 11:35:03;;;;;;;7.75;1.40;;;29.90;99.90;;;;;;2034028;70;21071;-80
2021/07/19 11:37:29;;;;;;;2.98;1.60;;;29.90;99.90;;;;;;2034051;70;21148;-79
2021/07/19 11:39:55;;;;;;;7.28;1.57;;;30.00;99.90;;;;;;2034050;70;21115;-79
2021/07/19 11:42:23;;;;;;;4.22;1.80;;;29.80;99.90;;;;;;2033983;70;21175;-80
2021/07/19 11:44:49;;;;;;;6.80;1.45;;;29.10;99.90;;;;;;2034193;70;21364;-80
2021/07/19 11:47:15;;;;;;;4.80;1.52;;;28.90;99.90;;;;;;2033969;70;21266;-79
2021/07/19 11:49:41;;;;;;;6.35;1.60;;;28.60;99.90;;;;;;2034131;69;21067;-80
2021/07/19 11:52:09;;;;;;;6.20;1.25;;;28.30;99.90;;;;;;2033878;70;21078;-78
2021/07/19 11:54:36;;;;;;;3.58;1.50;;;28.70;99.90;;;;;;2034107;70;21576;-78
2021/07/19 11:57:02;;;;;;;2.47;1.35;;;29.10;99.90;;;;;;2034057;70;21079;-78
2021/07/19 11:59:28;;;;;;;3.95;1.35;;;29.60;99.90;;;;;;2034122;70;21076;-79
2021/07/19 12:01:54;;;;;;;9.95;1.52;;;29.20;99.90;;;;;;2033909;69;21015;-78
2021/07/19 12:04:22;;;;;;;9.65;1.62;;;29.30;99.90;;;;;;2034042;70;21015;-79
2021/07/19 12:06:48;;;;;;;3.25;1.50;;;29.30;99.90;;;;;;2034276;70;21120;-78
2021/07/19 12:09:14;;;;;;;3.72;1.30;;;29.20;99.90;;;;;;2034106;70;21156;-80
2021/07/19 12:11:40;;;;;;;9.35;1.57;;;29.20;99.90;;;;;;2034156;70;21246;-80
2021/07/19 12:14:09;;;;;;;9.80;1.75;;;29.50;99.90;;;;;;2034121;70;21062;-78
2021/07/19 12:16:35;;;;;;;1.52;1.10;;;29.50;99.90;;;;;;2034354;70;21196;-81
2021/07/19 12:19:01;;;;;;;1.90;1.22;;;29.60;99.90;;;;;;2034078;70;21064;-79
2021/07/19 12:21:30;;;;;;;3.80;1.45;;;29.70;99.90;;;;;;2034007;70;21086;-78
2021/07/19 12:23:55;;;;;;;2.67;1.30;;;29.60;99.90;;;;;;2033821;70;21533;-78
2021/07/19 12:26:22;;;;;;;1.30;1.20;;;30.10;99.90;;;;;;2034106;70;21079;-78
2021/07/19 12:28:48;;;;;;;2.77;1.20;;;30.40;99.90;;;;;;2034149;70;21174;-78
2021/07/19 12:31:14;;;;;;;6.95;1.50;;;30.50;99.90;;;;;;2034103;70;21075;-78
2021/07/19 12:33:40;;;;;;;1.77;1.17;;;30.70;99.90;;;;;;2034167;69;21075;-77
2021/07/19 12:36:06;;;;;;;2.10;0.93;;;30.40;99.90;;;;;;2034237;70;21075;-77
2021/07/19 12:38:32;;;;;;;9.00;1.60;;;29.80;99.90;;;;;;2034143;70;21060;-78
2021/07/19 12:40:58;;;;;;;2.42;1.52;;;30.10;99.90;;;;;;2034181;70;21071;-78